Cactus Peak, Santa Catalina Island Weather observations

Data are for 10 minute period ending at time listed.
 Day   Time   Solar   Ave.   Ave.  Ave.  Vector    Max.   Stn.    Total
  of    of     Rad.   Air    Rel.  Wind   Wind     Wind   Baro.  Precip.
Year   Day            Temp.  Hum.  Speed  Dir.     Gust   Pres.         
2026   (PST)   W/m2    F      %     mph   deg.      mph    mb.     in.  
------------------------------------------------------------------------
 123   21:10    0.0    52   81.5     6    283.6    13.1    999.0   0.00  
 123   21:20    0.0    52   82.4     7    280.2    10.8    999.0   0.00  
 123   21:30    0.0    53   81.4     7    263.6    12.5    999.0   0.00  
 123   21:40    0.0    53   78.9     7    264.9    13.1    999.0   0.00  
 123   21:50    0.0    53   79.8    10    249.8    13.7    999.0   0.00  
 123   22:00    0.0    53   81.5     8    271.4    11.9    999.0   0.00  
 123   22:10    0.0    53   83.6    11    250.0    16.1    999.0   0.00  
 123   22:20    0.0    52   83.9     9    257.7    17.3    999.0   0.00  
 123   22:30    0.0    52   83.6     7    256.9    15.5    999.0   0.00  
 123   22:40    0.0    53   83.8     9    258.8    19.7    999.0   0.00  
 123   22:50    0.0    53   84.4    10    255.5    18.5    999.0   0.00  
 123   23:00    0.0    53   83.8    10    251.6    16.7    999.0   0.00  
 123   23:10    0.0    52   83.4    10    254.3    16.1    999.0   0.00  
 123   23:20    0.0    53   83.4    10    272.5    14.9    999.0   0.00  
 123   23:30    0.0    52   83.0     8    278.1    14.9    999.0   0.00  
 123   23:40    0.0    52   83.4     8    274.1    13.7    999.0   0.00  
 123   23:50    0.0    52   84.4     8    280.4    14.3    999.0   0.00  
 124    0:00    0.0    52   84.8     6    284.4    10.8    999.0   0.00  
 124    0:10    0.0    52   84.1     8    282.3    11.9    999.0   0.00  
 124    0:20    0.0    52   83.8     6    290.4    10.8    999.0   0.00  
 124    0:30    0.0    52   82.7     8    296.3    12.5    999.0   0.00  
 124    0:40    0.0    52   81.3     9    303.4    13.7    999.0   0.00  
 124    0:50    0.0    52   82.9     7    313.9    12.5    999.0   0.00  
 124    1:00    0.0    52   84.2     9    302.3    13.1    999.0   0.00  
 124    1:10    0.0    52   84.5     8    301.3    11.9    999.0   0.00  
 124    1:20    0.0    52   84.5     9    307.9    13.1    999.0   0.00  
 124    1:30    0.0    52   82.4     8    303.6    12.5    999.0   0.00  
 124    1:40    0.0    52   80.7     7    297.4    12.5    999.0   0.00  
 124    1:50    0.0    52   80.8     7    303.4    10.8    999.0   0.00  
 124    2:00    0.0    52   80.8     7    312.7    10.2    999.0   0.00  
 124    2:10    0.0    52   80.6     7    309.6    14.3    999.0   0.00  
 124    2:20    0.0    52   82.6     9    296.3    13.7    999.0   0.00  
 124    2:30    0.0    52   83.6     8    295.6    14.9    999.0   0.00  
 124    2:40    0.0    52   83.5     9    279.7    14.9    999.0   0.00  
 124    2:50    0.0    52   82.5     9    304.6    15.5    999.0   0.00  
 124    3:00    0.0    52   82.8     8    307.1    13.7    999.0   0.00  
 124    3:10    0.0    52   83.2     8    302.9    11.9    999.0   0.00  
 124    3:20    0.0    52   83.7     9    309.9    14.9    999.0   0.00  
 124    3:30    0.0    52   84.5     9    303.2    16.1    999.0   0.00  
 124    3:40    0.0    52   85.1     9    300.7    14.9    999.0   0.00  
 124    3:50    0.0    52   85.9    10    300.8    15.5    999.0   0.00  
 124    4:00    0.0    52   86.5     7    319.6    11.9    999.0   0.00  
 124    4:10    0.0    52   87.4     8    326.1    10.8    999.0   0.00  
 124    4:20    0.0    52   87.7     8    333.4    12.5    999.0   0.00  
 124    4:30    0.0    52   87.8     8    318.7    12.5    999.0   0.00  
 124    4:40    0.0    52   88.0     7    319.6    11.9    999.0   0.00  
 124    4:50    0.0    52   88.1     8    309.7    14.3    999.0   0.00  
 124    5:00    0.0    52   87.8     8    303.8    14.3    999.0   0.00  
 124    5:10    0.0    52   88.0     9    312.0    15.5    999.0   0.00  
 124    5:20   10.0    52   88.1     9    303.6    13.1    999.0   0.00  
 124    5:30   17.0    52   88.0     9    306.4    13.1    999.0   0.00  
 124    5:40   41.0    52   87.0     8    320.5    11.3    999.0   0.00  
 124    5:50   46.0    52   85.6     8    303.1    11.9    999.0   0.00  
 124    6:00   50.0    52   84.9     8    306.0    12.5    999.0   0.00  
 124    6:10   65.0    52   84.4     9    306.0    13.7    999.0   0.00  
 124    6:20   90.0    52   84.1     8    310.0    12.5    999.0   0.00  
 124    6:30  165.0    53   82.2     7    308.7    11.3    999.0   0.00  
 124    6:40  219.0    54   80.1     8    315.3    11.9    999.0   0.00  
 124    6:50  238.0    54   77.5     9    305.4    13.1    999.0   0.00  
 124    7:00  185.0    54   77.9     8    304.3    12.5    999.0   0.00  
 124    7:10  248.0    54   77.2     8    307.8    13.1    999.0   0.00  
 124    7:20  288.0    55   74.0    10    309.1    14.3    999.0   0.00  
 124    7:30  448.0    56   71.6     9    320.9    13.7    999.0   0.00  
 124    7:40  446.0    57   69.7     9    329.5    13.1    999.0   0.00  
 124    7:50  329.0    56   69.3     9    324.1    14.3    999.0   0.00  
 124    8:00  343.0    55   71.0    10    295.7    14.3    999.0   0.00  
 124    8:10  336.0    55   71.5     9    307.2    14.9    999.0   0.00  
 124    8:20  467.0    57   69.1     8    298.9    13.1    999.0   0.00  
 124    8:30  398.0    57   70.3     8    264.0    11.9    999.0   0.00  
 124    8:40  670.0    56   73.8    10    250.6    13.1    999.0   0.00  
 124    8:50  559.0    57   70.2     8    255.1    13.1    999.0   0.00  
 124    9:00  534.0    56   68.9    10    254.9    15.5    999.0   0.00  
 124    9:10  488.0    57   68.6     9    272.6    14.3    999.0   0.00  
 124    9:20  697.0    57   69.4    10    270.4    15.5    999.0   0.00  
 124    9:30  637.0    58   69.9     9    248.0    15.5    999.0   0.00  
 124    9:40  800.0    58   66.4     9    258.4    16.7    999.0   0.00  
 124    9:50  773.0    58   66.6     8    267.2    13.1    999.0   0.00  
 124   10:00  747.0    58   69.0     8    253.0    13.7    999.0   0.00  
 124   10:10  571.0    58   69.1     8    253.6    13.1    999.0   0.00  
 124   10:20  780.0    59   65.2     8    260.6    13.7    999.0   0.00  
 124   10:30  852.0    59   64.4     8    258.6    16.1    999.0   0.00  
 124   10:40  703.0    58   68.1    10    232.9    19.1    999.0   0.00  
 124   10:50  635.0    59   68.0     9    227.6    16.1    999.0   0.00  
 124   11:00  590.0    58   70.5     9    247.7    13.7    999.0   0.00  
 124   11:10  733.0    58   68.3    10    221.2    19.7    999.0   0.00  
 124   11:20  522.0    58   70.3     9    234.9    15.5    999.0   0.00  
 124   11:30  689.0    58   72.3    12    212.4    17.9    999.0   0.00  
 124   11:40  538.0    59   69.0    10    226.7    18.5    999.0   0.00  
 124   11:50  481.0    58   73.5    12    226.4    17.3    999.0   0.00  
 124   12:00  399.0    57   76.9    12    233.2    17.3    999.0   0.00  
 124   12:10  425.0    57   77.0    13    219.5    18.5    999.0   0.00  
 124   12:20  499.0    57   73.2    11    230.3    14.9    999.0   0.00  
 124   12:30  598.0    59   69.1    10    219.5    16.7    999.0   0.00  
 124   12:40  675.0    59   69.1    11    230.8    16.1    999.0   0.00  
 124   12:50  760.0    59   68.7    11    222.8    20.3    999.0   0.00  
 124   13:00  578.0    59   69.6    11    224.6    18.5    999.0   0.00  
 124   13:10  597.0    58   68.7    12    231.9    16.1    999.0   0.00  
 124   13:20  585.0    58   65.7     9    249.0    14.3    999.0   0.00  
 124   13:30  615.0    59   64.6     9    247.3    14.3    999.0   0.00  
 124   13:40  601.0    59   66.0    10    240.1    15.5    999.0   0.00  
 124   13:50  438.0    59   67.6    10    233.9    16.1    999.0   0.00  
 124   14:00  655.0    58   69.4     9    245.3    14.3    999.0   0.00  
 124   14:10  730.0    59   67.8     9    242.9    13.1    999.0   0.00  
 124   14:20  725.0    60   62.8     9    240.3    16.1    999.0   0.00  
 124   14:30  768.0    60   61.0    10    240.3    16.7    999.0   0.00  
 124   14:40  631.0    59   63.6     9    255.7    13.1    999.0   0.00  
 124   14:50  437.0    58   63.0     9    256.5    12.5    999.0   0.00  
 124   15:00  634.0    59   61.5     7    253.7    11.3    999.0   0.00  
 124   15:10  564.0    60   60.5    10    214.5    16.1    999.0   0.00  
 124   15:20  438.0    58   65.6     9    229.6    13.1    999.0   0.00  
 124   15:30  241.0    57   70.5     7    227.6    13.7    999.0   0.00  
 124   15:40  130.0    56   75.7    10    228.3    14.9    999.0   0.00  
 124   15:50  153.0    55   83.6     9    232.6    14.3    999.0   0.00  
 124   16:00  158.0    54   94.6    10    227.9    14.3    999.0   0.00  
 124   16:10   83.0    53   99.9     9    192.8    16.7    999.0   0.00  
 124   16:20   60.0    53   99.9    12    191.4    17.3    999.0   0.00  
 124   16:30   57.0    52   99.9    13    201.4    19.1    999.0   0.01  
 124   16:40  124.0    52   99.9     9    232.4    14.3    999.0   0.00  
 124   16:50   93.0    52   99.9     9    221.8    11.9    999.0   0.00  
 124   17:00   74.0    52   99.9     8    202.0    11.3    999.0   0.01  
 124   17:10   39.0    52   99.9     9    187.4    14.3    999.0   0.01  
 124   17:20   64.0    51   99.9     7    205.5    11.9    999.0   0.00  
 124   17:30   56.0    51   99.9     6    197.2     9.0    999.0   0.00  
 124   17:40   47.0    51   99.9     5    214.5     7.2    999.0   0.01  
 124   17:50   43.0    51   99.9     1    226.1     0.6    999.0   0.00  
 124   18:00   26.0    51   99.9     2    192.7     4.8    999.0   0.00  
 124   18:10   11.0    51   99.9     1    189.8     3.0    999.0   0.01  
 124   18:20    7.0    51   99.9     1    195.6     0.6    999.0   0.01  
 124   18:30    7.0    51   99.9     1    236.4     0.6    999.0   0.00  
 124   18:40    4.0    51   99.9     1    331.6     0.6    999.0   0.00  
 124   18:50    0.0    51   99.9     1     16.5     0.6    999.0   0.00  
 124   19:00    0.0    51   99.9     1     10.8     0.6    999.0   0.00  
 124   19:10    0.0    51   99.9     1      4.6     0.6    999.0   0.01  
 124   19:20    0.0    51   99.9     1    358.4     0.6    999.0   0.00  
 124   19:30    0.0    50   99.9     1      4.6     0.6    999.0   0.00  
 124   19:40    0.0    50   99.9     1    355.1     0.6    999.0   0.00  
 124   19:50    0.0    50   99.9     1    354.5     0.6    999.0   0.00  
 124   20:00    0.0    50   99.9     1    310.4     0.6    999.0   0.00  
 124   20:10    0.0    50   99.9     6    333.5    12.5    999.0   0.00  
 124   20:20    0.0    50   99.9    12      5.2    15.5    999.0   0.00  
 124   20:30    0.0    50   99.9     9    347.3    11.9    999.0   0.00  
 124   20:40    0.0    50   99.9     7    322.2    11.3    999.0   0.00  
 124   20:50    0.0    51   99.9     6    305.2     9.0    999.0   0.00  
 124   21:00    0.0    51   99.9     6    276.3     9.0    999.0   0.00  

Return to Cactus Peak graphs page.


Western Regional Climate Center,wrcc@dri.edu